Fecha, hora, temperatura, viento dirección y velocidad, humedad y presión.

  • 11-04-2019 21:00:00 | 18.10°C | Sudoeste |18.00 km/h | 60.00% | 1013.30 hPa
  • 11-04-2019 20:00:00 | 20.70°C | Oeste |11.00 km/h | 44.00% | 1013.10 hPa
  • 11-04-2019 19:00:00 | 21.80°C | Noroeste |2.00 km/h | 35.00% | 1013.10 hPa
  • 11-04-2019 18:00:00 | 22.10°C | Norte |9.00 km/h | 36.00% | 1013.30 hPa
  • 11-04-2019 17:00:00 | 21.90°C | Oeste |6.00 km/h | 36.00% | 1013.60 hPa
  • 11-04-2019 16:00:00 | 21.50°C | Sudoeste |7.00 km/h | 38.00% | 1014.20 hPa
  • 11-04-2019 15:00:00 | 20.00°C | Norte |6.00 km/h | 41.00% | 1014.90 hPa
  • 11-04-2019 14:00:00 | 19.00°C | Sudoeste |6.00 km/h | 49.00% | 1015.60 hPa
  • 11-04-2019 13:00:00 | 17.50°C | Noroeste |6.00 km/h | 54.00% | 1016.20 hPa
  • 11-04-2019 12:00:00 | 16.40°C | Norte |4.00 km/h | 57.00% | 1016.30 hPa
  • 11-04-2019 11:00:00 | 14.60°C | Norte |10.00 km/h | 65.00% | 1016.00 hPa
  • 11-04-2019 10:00:00 | 12.80°C | Norte |10.00 km/h | 74.00% | 1015.90 hPa
  • 11-04-2019 09:00:00 | 9.90°C | Calma |0.00 km/h | 88.00% | 1015.70 hPa
  • 11-04-2019 08:00:00 | 7.20°C | Sudeste |6.00 km/h | 93.00% | 1015.40 hPa
  • 11-04-2019 07:00:00 | 7.20°C | Sudeste |8.00 km/h | 93.00% | 1015.00 hPa
  • 11-04-2019 06:00:00 | 8.60°C | Sudeste |5.00 km/h | 85.00% | 1014.90 hPa
  • 11-04-2019 05:00:00 | 9.30°C | Noroeste |3.00 km/h | 83.00% | 1014.70 hPa
  • 11-04-2019 04:00:00 | 9.80°C | Oeste |12.00 km/h | 80.00% | 1014.80 hPa
  • 11-04-2019 03:00:00 | 10.10°C | Noroeste |4.00 km/h | 77.00% | 1014.90 hPa
  • 11-04-2019 02:00:00 | 10.10°C | Calma |0.00 km/h | 80.00% | 1015.10 hPa
  • 11-04-2019 01:00:00 | 11.10°C | Noroeste |6.00 km/h | 73.00% | 1014.90 hPa
  • 11-04-2019 00:00:00 | 12.20°C | Oeste |6.00 km/h | 67.00% | 1014.80 hPa
  • 10-04-2019 23:00:00 | 14.30°C | Noroeste |13.00 km/h | 58.00% | 1014.60 hPa
  • 10-04-2019 22:00:00 | 14.20°C | Oeste |11.00 km/h | 61.00% | 1014.00 hPa
    • diseño web asturias Información sobre el estado de las mareas, altura de la marejada, temperatura del agua y otros datos de Gijón en Asturias.

      Surf Gijón